Time;durP1;ratioP1;P1;durP2;ratioP2;P2;SDS_P1;SDS_P2;PMS_P1;PMS_P2;Temp;Humidity;BMP_temperature;BMP_pressure;BME280_temperature;BME280_humidity;BME280_pressure;Samples;Min_cycle;Max_cycle;Signal;HPM_P1;HPM_P2
2023/09/21 00:01:03;;;;;;;4.47;1.30;;;20.60;66.20;;;;;;2343263;53;20924;-68
2023/09/21 00:03:30;;;;;;;2.45;1.02;;;20.60;66.20;;;;;;2589065;52;21701;-71
2023/09/21 00:05:57;;;;;;;2.62;1.20;;;20.60;66.10;;;;;;2589930;52;20949;-71
2023/09/21 00:08:24;;;;;;;3.00;1.12;;;20.60;66.20;;;;;;2589476;52;20989;-70
2023/09/21 00:10:50;;;;;;;3.05;1.27;;;20.60;66.20;;;;;;2343602;53;20921;-71
2023/09/21 00:13:17;;;;;;;2.22;0.95;;;20.60;66.20;;;;;;2356158;53;21685;-70
2023/09/21 00:15:47;;;;;;;2.87;1.20;;;20.60;66.20;;;;;;2595498;52;20914;-71
2023/09/21 00:18:14;;;;;;;3.00;1.15;;;20.60;66.10;;;;;;2343310;53;20925;-72
2023/09/21 00:20:48;;;;;;;2.12;0.95;;;20.60;66.30;;;;;;2342480;54;20937;-69
2023/09/21 00:23:15;;;;;;;2.67;1.00;;;20.60;66.30;;;;;;2343060;54;21055;-69
2023/09/21 00:25:42;;;;;;;2.92;1.15;;;20.60;66.30;;;;;;2368773;53;21759;-71
2023/09/21 00:28:12;;;;;;;1.67;0.70;;;20.60;66.30;;;;;;2371120;53;20922;-70
2023/09/21 00:30:40;;;;;;;2.62;1.00;;;20.50;66.30;;;;;;2366750;53;20951;-68
2023/09/21 00:33:09;;;;;;;2.50;1.00;;;20.50;66.30;;;;;;2355904;53;20970;-70
2023/09/21 00:35:39;;;;;;;2.78;1.00;;;20.50;66.50;;;;;;2364416;53;21019;-71
2023/09/21 00:38:08;;;;;;;2.50;1.10;;;20.50;66.60;;;;;;2354916;53;21013;-68
2023/09/21 00:40:38;;;;;;;3.22;1.30;;;20.50;66.70;;;;;;2622752;52;20957;-71
2023/09/21 00:43:09;;;;;;;2.78;1.23;;;20.50;66.90;;;;;;2368723;53;20974;-69
2023/09/21 00:45:36;;;;;;;3.45;1.40;;;20.50;66.90;;;;;;2369860;53;20931;-71
2023/09/21 00:48:09;;;;;;;2.70;1.30;;;20.50;67.00;;;;;;2623879;52;20926;-68
2023/09/21 00:50:36;;;;;;;3.75;1.25;;;20.50;67.00;;;;;;2370684;53;21006;-69
2023/09/21 00:53:05;;;;;;;3.58;1.50;;;20.50;67.10;;;;;;2370876;53;21376;-70
2023/09/21 00:55:31;;;;;;;2.97;1.20;;;20.50;67.10;;;;;;2370017;53;20978;-69
2023/09/21 00:58:02;;;;;;;2.00;0.82;;;20.60;67.20;;;;;;2371062;53;20923;-69
2023/09/21 01:00:29;;;;;;;2.95;1.10;;;20.60;67.90;;;;;;2370518;53;20970;-69
2023/09/21 01:02:55;;;;;;;2.40;1.00;;;20.60;67.30;;;;;;2370763;53;21113;-69
2023/09/21 01:05:22;;;;;;;1.87;0.90;;;20.60;67.40;;;;;;2353811;53;21021;-71
2023/09/21 01:07:50;;;;;;;2.70;0.98;;;20.60;67.40;;;;;;2592416;52;21602;-69
2023/09/21 01:10:21;;;;;;;2.17;1.02;;;20.60;67.40;;;;;;2371063;53;21888;-70
2023/09/21 01:12:51;;;;;;;2.40;0.98;;;20.70;67.50;;;;;;2371431;53;20955;-70
2023/09/21 01:15:17;;;;;;;2.72;1.27;;;20.70;67.50;;;;;;2364408;53;20974;-70
2023/09/21 01:17:46;;;;;;;2.42;0.90;;;20.70;67.50;;;;;;2356090;53;20998;-72
2023/09/21 01:20:23;;;;;;;2.30;1.15;;;20.70;67.50;;;;;;2371385;53;20975;-69
2023/09/21 01:23:11;;;;;;;2.90;1.10;;;20.80;67.70;;;;;;2371688;53;21061;-68
2023/09/21 01:25:41;;;;;;;2.67;1.10;;;20.80;67.10;;;;;;2371508;53;20938;-70
2023/09/21 01:28:09;;;;;;;2.60;1.10;;;20.80;67.70;;;;;;2371469;53;21009;-71
2023/09/21 01:30:38;;;;;;;2.80;1.23;;;20.80;67.70;;;;;;2623171;52;20919;-69
2023/09/21 01:33:08;;;;;;;2.05;0.70;;;20.90;67.70;;;;;;2623608;52;20958;-70
2023/09/21 01:35:36;;;;;;;2.55;0.95;;;20.90;67.70;;;;;;2623276;52;20926;-71
2023/09/21 01:38:05;;;;;;;2.50;1.00;;;20.90;67.70;;;;;;2371419;53;21025;-71
2023/09/21 01:40:42;;;;;;;2.33;0.93;;;20.90;67.70;;;;;;2373865;53;21007;-68
2023/09/21 01:43:15;;;;;;;2.17;1.00;;;20.90;67.70;;;;;;2623013;52;20965;-70
2023/09/21 01:45:42;;;;;;;2.05;0.93;;;20.90;67.70;;;;;;2349001;53;21061;-72
2023/09/21 01:48:09;;;;;;;2.75;0.88;;;21.00;67.70;;;;;;2370862;53;21002;-70
2023/09/21 01:50:47;;;;;;;2.87;0.85;;;21.00;67.70;;;;;;2370453;53;21068;-69
2023/09/21 01:53:14;;;;;;;1.83;0.75;;;21.00;67.50;;;;;;2371274;53;20910;-71
2023/09/21 01:55:40;;;;;;;2.90;1.00;;;21.00;67.60;;;;;;2350945;53;20997;-70
2023/09/21 01:58:11;;;;;;;2.50;1.00;;;21.00;67.60;;;;;;2616351;52;20954;-71
2023/09/21 02:00:39;;;;;;;2.47;0.88;;;21.00;67.70;;;;;;2353672;53;21511;-70
2023/09/21 02:03:09;;;;;;;2.20;0.90;;;21.00;67.70;;;;;;2623345;52;20946;-71
2023/09/21 02:05:36;;;;;;;2.08;0.90;;;21.00;67.80;;;;;;2370399;53;20993;-71
2023/09/21 02:08:09;;;;;;;2.25;0.93;;;21.10;67.80;;;;;;2370960;53;20946;-69
2023/09/21 02:10:38;;;;;;;2.17;1.00;;;21.10;67.70;;;;;;2345744;53;20984;-70
2023/09/21 02:13:05;;;;;;;2.83;1.10;;;21.10;67.80;;;;;;2609109;52;20938;-69
2023/09/21 02:15:38;;;;;;;2.35;1.05;;;21.10;67.70;;;;;;2342975;53;20937;-72
2023/09/21 02:18:05;;;;;;;2.45;1.15;;;21.20;67.70;;;;;;2603557;52;21538;-71
2023/09/21 02:20:35;;;;;;;3.10;1.25;;;21.20;67.90;;;;;;2350748;54;20986;-69
2023/09/21 02:23:05;;;;;;;2.22;0.90;;;21.20;67.90;;;;;;2623780;52;21521;-72
2023/09/21 02:25:40;;;;;;;2.67;1.20;;;21.20;67.90;;;;;;2352868;53;21226;-70
2023/09/21 02:28:09;;;;;;;2.22;1.02;;;21.20;67.90;;;;;;2351560;54;21016;-69
2023/09/21 02:30:37;;;;;;;2.20;0.95;;;21.30;68.00;;;;;;2623312;52;21069;-71
2023/09/21 02:33:05;;;;;;;2.10;0.85;;;21.30;68.10;;;;;;2343332;53;21196;-69
2023/09/21 02:35:33;;;;;;;2.65;1.08;;;21.30;68.00;;;;;;2370464;53;21001;-69
2023/09/21 02:38:00;;;;;;;1.92;0.88;;;21.40;68.10;;;;;;2370916;53;21704;-70
2023/09/21 02:40:26;;;;;;;2.03;0.77;;;21.40;68.10;;;;;;2623283;52;20899;-69
2023/09/21 02:42:55;;;;;;;2.00;0.90;;;21.40;68.10;;;;;;2370763;53;21974;-68
2023/09/21 02:45:25;;;;;;;2.42;1.15;;;21.40;68.10;;;;;;2623313;52;20954;-69
2023/09/21 02:47:54;;;;;;;2.10;0.75;;;21.40;68.00;;;;;;2623709;52;21522;-69
2023/09/21 02:50:27;;;;;;;2.62;1.00;;;21.40;68.00;;;;;;2623476;52;21009;-71
2023/09/21 02:53:14;;;;;;;2.22;0.80;;;21.40;67.90;;;;;;2370805;53;21420;-71
2023/09/21 02:55:43;;;;;;;4.40;1.20;;;21.50;67.30;;;;;;2370779;53;21006;-70
2023/09/21 02:58:13;;;;;;;2.40;1.02;;;21.40;68.00;;;;;;2371183;53;20974;-69
2023/09/21 03:00:42;;;;;;;2.05;0.95;;;21.50;68.10;;;;;;2369817;53;21014;-69
2023/09/21 03:03:12;;;;;;;2.45;0.98;;;21.50;68.10;;;;;;2622776;52;20982;-71
2023/09/21 03:05:39;;;;;;;2.67;1.15;;;21.60;68.20;;;;;;2370496;53;20945;-71
2023/09/21 03:08:13;;;;;;;2.40;1.10;;;21.50;68.10;;;;;;2371034;53;21201;-70
2023/09/21 03:10:54;;;;;;;1.92;0.90;;;21.50;68.00;;;;;;2372745;53;20949;-69
2023/09/21 03:13:24;;;;;;;2.35;1.00;;;21.50;68.00;;;;;;2623629;52;20946;-69
2023/09/21 03:15:56;;;;;;;2.72;0.85;;;21.50;68.00;;;;;;2623491;52;20934;-69
2023/09/21 03:18:24;;;;;;;2.50;1.00;;;21.50;67.80;;;;;;2623612;52;20926;-70
2023/09/21 03:20:52;;;;;;;2.22;0.90;;;21.50;67.90;;;;;;2622644;52;21202;-70
2023/09/21 03:23:20;;;;;;;1.62;0.82;;;21.50;68.00;;;;;;2613899;52;20914;-70
2023/09/21 03:25:49;;;;;;;2.50;0.98;;;21.50;68.00;;;;;;2370538;53;20962;-70
2023/09/21 03:28:17;;;;;;;3.12;0.90;;;21.50;68.10;;;;;;2370819;53;20990;-69
2023/09/21 03:30:45;;;;;;;2.60;1.08;;;21.50;68.10;;;;;;2612318;52;20957;-72
2023/09/21 03:33:12;;;;;;;2.37;0.95;;;21.50;68.20;;;;;;2370969;53;21335;-72
2023/09/21 03:35:38;;;;;;;3.00;1.08;;;21.50;68.20;;;;;;2614030;52;20985;-72
2023/09/21 03:38:18;;;;;;;1.92;0.80;;;21.50;68.30;;;;;;2620997;52;20926;-71
2023/09/21 03:40:44;;;;;;;2.28;1.00;;;21.50;68.40;;;;;;2370625;53;21022;-70
2023/09/21 03:43:12;;;;;;;2.28;0.93;;;21.50;68.40;;;;;;2371965;53;21103;-70
2023/09/21 03:45:39;;;;;;;2.25;1.00;;;21.50;68.40;;;;;;2363521;53;21013;-72
2023/09/21 03:48:08;;;;;;;3.05;1.20;;;21.50;68.40;;;;;;2623008;52;21051;-72
2023/09/21 03:50:38;;;;;;;2.00;1.00;;;21.50;68.40;;;;;;2370574;53;20962;-70
2023/09/21 03:53:05;;;;;;;2.10;1.15;;;21.60;68.40;;;;;;2623507;52;20935;-71
2023/09/21 03:55:32;;;;;;;2.97;1.23;;;21.50;69.30;;;;;;2370266;53;21774;-71
2023/09/21 03:57:58;;;;;;;2.17;1.00;;;21.50;68.60;;;;;;2620377;52;20982;-70
2023/09/21 04:00:38;;;;;;;3.05;1.00;;;21.60;68.80;;;;;;2370319;53;20942;-69
2023/09/21 04:03:09;;;;;;;2.40;1.17;;;21.60;68.70;;;;;;2370875;53;20997;-69
2023/09/21 04:05:37;;;;;;;2.92;1.10;;;21.60;68.70;;;;;;2622888;52;20946;-70
2023/09/21 04:08:04;;;;;;;3.03;1.20;;;21.60;68.90;;;;;;2623034;52;21002;-70
2023/09/21 04:10:31;;;;;;;2.97;1.30;;;21.60;69.70;;;;;;2370278;53;20918;-69
2023/09/21 04:12:58;;;;;;;2.50;1.17;;;21.60;68.90;;;;;;2370263;53;21004;-68
2023/09/21 04:15:28;;;;;;;2.62;1.08;;;21.70;69.00;;;;;;2366739;53;20972;-72
2023/09/21 04:17:57;;;;;;;2.35;1.12;;;21.60;68.90;;;;;;2621949;52;21436;-70
2023/09/21 04:20:25;;;;;;;2.37;1.05;;;21.70;69.00;;;;;;2369789;53;21040;-72
2023/09/21 04:22:53;;;;;;;2.80;1.17;;;21.70;69.00;;;;;;2370377;53;21037;-69
2023/09/21 04:25:20;;;;;;;2.25;1.05;;;21.70;69.00;;;;;;2371039;53;20926;-72
2023/09/21 04:27:47;;;;;;;2.20;1.10;;;21.70;69.00;;;;;;2369728;53;21561;-70
2023/09/21 04:30:14;;;;;;;2.22;1.00;;;21.70;69.00;;;;;;2622878;52;20914;-71
2023/09/21 04:32:47;;;;;;;2.33;0.95;;;21.50;68.80;;;;;;2343510;53;21406;-70
2023/09/21 04:35:14;;;;;;;4.93;1.40;;;21.70;68.80;;;;;;2348733;53;21008;-71
2023/09/21 04:37:48;;;;;;;2.80;1.23;;;21.70;69.00;;;;;;2343076;53;20934;-70
2023/09/21 04:40:14;;;;;;;1.95;1.02;;;21.70;68.90;;;;;;2589759;52;21565;-70
2023/09/21 04:42:41;;;;;;;2.12;0.98;;;21.70;69.00;;;;;;2342663;53;21249;-71
2023/09/21 04:45:16;;;;;;;2.30;1.00;;;21.70;68.90;;;;;;2338301;54;20968;-72
2023/09/21 04:47:43;;;;;;;2.45;1.00;;;21.70;68.60;;;;;;2580414;53;20929;-69
2023/09/21 04:50:10;;;;;;;2.17;0.93;;;21.70;68.90;;;;;;2623589;52;20919;-72
2023/09/21 04:52:36;;;;;;;1.95;0.88;;;21.70;68.90;;;;;;2370607;53;20994;-69
2023/09/21 04:55:08;;;;;;;2.37;1.10;;;21.70;69.00;;;;;;2623179;52;21006;-71
2023/09/21 04:57:35;;;;;;;2.72;1.08;;;21.70;69.00;;;;;;2622858;52;20989;-70
2023/09/21 05:00:13;;;;;;;3.97;1.35;;;21.70;69.00;;;;;;2370833;53;20938;-73
2023/09/21 05:02:39;;;;;;;2.70;1.20;;;21.70;69.10;;;;;;2370014;53;21002;-71
2023/09/21 05:05:06;;;;;;;2.78;1.30;;;21.80;69.20;;;;;;2624087;52;22483;-69
2023/09/21 05:07:35;;;;;;;2.08;0.93;;;21.80;69.20;;;;;;2623367;52;20922;-72
2023/09/21 05:10:03;;;;;;;2.47;1.12;;;21.80;69.20;;;;;;2623848;52;20977;-69
2023/09/21 05:12:29;;;;;;;2.28;1.00;;;21.80;69.20;;;;;;2623623;52;20938;-69
2023/09/21 05:14:55;;;;;;;2.50;1.15;;;21.80;69.20;;;;;;2371079;53;20959;-69
2023/09/21 05:17:22;;;;;;;2.95;1.10;;;21.80;69.20;;;;;;2370571;53;21023;-72
2023/09/21 05:19:49;;;;;;;1.87;0.90;;;21.90;69.30;;;;;;2370764;53;21774;-69
2023/09/21 05:22:15;;;;;;;2.90;1.30;;;21.90;69.20;;;;;;2370639;53;21438;-72
2023/09/21 05:24:43;;;;;;;2.58;1.40;;;21.90;69.20;;;;;;2371348;53;20974;-70
2023/09/21 05:27:11;;;;;;;3.75;1.10;;;21.90;69.10;;;;;;2622122;52;21009;-70
2023/09/21 05:29:40;;;;;;;3.97;1.48;;;21.80;69.00;;;;;;2615393;52;20935;-70
2023/09/21 05:32:06;;;;;;;2.50;1.10;;;21.90;69.10;;;;;;2371205;53;21501;-67
2023/09/21 05:34:32;;;;;;;2.70;1.30;;;21.90;69.00;;;;;;2370883;53;20959;-69
2023/09/21 05:36:59;;;;;;;2.70;1.27;;;22.00;69.00;;;;;;2371039;53;21881;-70
2023/09/21 05:39:25;;;;;;;2.67;1.30;;;21.90;68.90;;;;;;2370903;53;20918;-67
2023/09/21 05:41:54;;;;;;;3.10;1.58;;;21.90;68.90;;;;;;2370701;53;20919;-67
2023/09/21 05:44:25;;;;;;;4.03;1.48;;;21.90;68.90;;;;;;2370829;53;20910;-71
2023/09/21 05:46:52;;;;;;;3.27;1.50;;;21.90;68.90;;;;;;2371309;53;20997;-68
2023/09/21 05:49:27;;;;;;;2.40;1.20;;;21.90;68.90;;;;;;2370491;53;20942;-68
2023/09/21 05:51:54;;;;;;;3.05;1.30;;;22.00;69.00;;;;;;2623354;52;21662;-70
2023/09/21 05:54:23;;;;;;;3.83;1.35;;;22.00;68.90;;;;;;2370590;53;21021;-69
2023/09/21 05:56:53;;;;;;;3.25;1.27;;;22.00;68.90;;;;;;2370773;53;20957;-67
2023/09/21 05:59:19;;;;;;;2.45;1.20;;;22.00;68.70;;;;;;2367426;53;21045;-72
2023/09/21 06:01:48;;;;;;;2.70;1.30;;;22.00;68.90;;;;;;2368566;53;20938;-72
2023/09/21 06:04:16;;;;;;;2.53;1.15;;;22.00;68.90;;;;;;2371313;53;20942;-72
2023/09/21 06:06:44;;;;;;;2.95;1.30;;;22.00;69.70;;;;;;2369667;53;20922;-69
2023/09/21 06:09:12;;;;;;;2.67;1.20;;;22.00;68.90;;;;;;2623037;52;20915;-72
2023/09/21 06:11:39;;;;;;;3.20;1.12;;;22.00;69.00;;;;;;2623121;52;21028;-71
2023/09/21 06:14:08;;;;;;;3.60;1.10;;;22.00;68.90;;;;;;2370787;53;20984;-73
2023/09/21 06:16:34;;;;;;;2.60;1.37;;;22.00;68.80;;;;;;2370737;53;20946;-69
2023/09/21 06:19:00;;;;;;;2.28;1.08;;;22.00;68.80;;;;;;2370158;53;21645;-69
2023/09/21 06:21:28;;;;;;;3.30;1.15;;;22.00;68.80;;;;;;2623107;52;20993;-70
2023/09/21 06:23:54;;;;;;;2.65;0.98;;;22.00;68.80;;;;;;2622954;52;20951;-68
2023/09/21 06:26:22;;;;;;;3.97;1.40;;;22.00;68.80;;;;;;2370434;53;20919;-68
2023/09/21 06:28:49;;;;;;;3.00;1.40;;;22.00;68.90;;;;;;2623552;52;20919;-70
2023/09/21 06:31:16;;;;;;;2.83;1.20;;;22.00;68.90;;;;;;2613458;52;20943;-69
2023/09/21 06:33:42;;;;;;;2.75;1.17;;;22.00;68.90;;;;;;2370284;53;20910;-70
2023/09/21 06:36:20;;;;;;;2.55;1.00;;;22.10;69.10;;;;;;2623407;52;21736;-70
2023/09/21 06:38:47;;;;;;;2.45;1.17;;;22.10;69.20;;;;;;2370486;53;20970;-69
2023/09/21 06:41:13;;;;;;;3.25;1.35;;;22.10;69.40;;;;;;2369648;53;20926;-70
2023/09/21 06:43:42;;;;;;;3.12;1.20;;;22.10;69.20;;;;;;2370680;53;21013;-69
2023/09/21 06:46:09;;;;;;;2.80;1.00;;;22.10;69.30;;;;;;2370537;53;20994;-69
2023/09/21 06:48:35;;;;;;;2.87;1.17;;;22.10;69.30;;;;;;2623414;52;20934;-70
2023/09/21 06:51:03;;;;;;;2.42;1.25;;;22.10;69.30;;;;;;2623485;52;20986;-69
2023/09/21 06:53:31;;;;;;;2.72;1.30;;;22.20;69.40;;;;;;2370648;53;20958;-68
2023/09/21 06:55:58;;;;;;;2.47;1.17;;;22.20;69.50;;;;;;2622917;52;21024;-70
2023/09/21 06:58:24;;;;;;;4.12;1.80;;;22.20;69.50;;;;;;2622594;52;21463;-69
2023/09/21 07:00:53;;;;;;;2.83;1.20;;;22.20;69.50;;;;;;2370310;53;20954;-69
2023/09/21 07:03:19;;;;;;;3.30;1.50;;;22.30;69.60;;;;;;2623528;52;20981;-69
2023/09/21 07:05:48;;;;;;;2.40;1.17;;;22.30;69.60;;;;;;2372373;53;21030;-69
2023/09/21 07:08:15;;;;;;;3.17;1.27;;;22.40;69.80;;;;;;2622944;52;20958;-69
2023/09/21 07:10:43;;;;;;;2.08;1.00;;;22.40;69.70;;;;;;2614801;52;20984;-69
2023/09/21 07:13:13;;;;;;;2.37;1.12;;;22.40;69.70;;;;;;2370014;53;20950;-69
2023/09/21 07:15:39;;;;;;;2.10;1.00;;;22.40;69.60;;;;;;2370676;53;21446;-71
2023/09/21 07:18:06;;;;;;;3.05;1.35;;;22.50;69.70;;;;;;2372115;53;20970;-70
2023/09/21 07:20:35;;;;;;;2.80;1.30;;;22.50;69.60;;;;;;2370785;53;20913;-68
2023/09/21 07:23:01;;;;;;;2.60;1.27;;;22.50;69.60;;;;;;2370850;53;21013;-70
2023/09/21 07:25:28;;;;;;;2.60;1.20;;;22.60;69.70;;;;;;2370447;53;20925;-69
2023/09/21 07:27:55;;;;;;;2.95;1.40;;;22.60;69.80;;;;;;2623534;52;20933;-70
2023/09/21 07:30:23;;;;;;;3.10;1.20;;;22.60;69.90;;;;;;2370999;53;20926;-68
2023/09/21 07:32:50;;;;;;;3.97;1.30;;;22.70;69.90;;;;;;2623874;52;21437;-69
2023/09/21 07:35:19;;;;;;;2.58;1.05;;;22.70;70.00;;;;;;2623295;52;21077;-69
2023/09/21 07:37:46;;;;;;;3.03;1.30;;;22.70;70.10;;;;;;2371035;53;20915;-69
2023/09/21 07:40:13;;;;;;;3.03;1.40;;;22.80;70.20;;;;;;2363322;53;20971;-68
2023/09/21 07:42:42;;;;;;;2.70;1.23;;;22.80;70.20;;;;;;2610389;52;20926;-71
2023/09/21 07:45:15;;;;;;;3.35;1.37;;;22.90;70.30;;;;;;2371419;53;21005;-68
2023/09/21 07:47:41;;;;;;;3.75;1.80;;;23.00;70.30;;;;;;2374541;53;20958;-69
2023/09/21 07:50:08;;;;;;;2.45;1.30;;;23.10;70.60;;;;;;2370878;53;20927;-69
2023/09/21 07:52:35;;;;;;;4.82;1.85;;;23.10;70.60;;;;;;2615305;52;20933;-71
2023/09/21 07:55:05;;;;;;;2.78;1.33;;;23.20;70.70;;;;;;2616887;52;21415;-70
2023/09/21 07:57:32;;;;;;;4.05;1.40;;;23.30;70.70;;;;;;2365979;53;20977;-70
2023/09/21 07:59:59;;;;;;;3.58;1.40;;;23.30;70.70;;;;;;2370345;53;21013;-69
2023/09/21 08:02:27;;;;;;;3.05;1.50;;;23.40;70.80;;;;;;2616879;52;20937;-69
2023/09/21 08:04:57;;;;;;;3.85;1.75;;;23.50;70.80;;;;;;2367236;53;20997;-69
2023/09/21 08:07:26;;;;;;;3.50;1.52;;;23.50;70.70;;;;;;2370415;53;20925;-67
2023/09/21 08:09:56;;;;;;;3.05;1.40;;;23.60;70.70;;;;;;2623375;52;20934;-69
2023/09/21 08:12:25;;;;;;;3.00;1.40;;;23.70;70.70;;;;;;2370813;53;20930;-69
2023/09/21 08:14:52;;;;;;;2.72;1.10;;;23.70;70.50;;;;;;2369816;53;21468;-70
2023/09/21 08:17:18;;;;;;;1.90;0.95;;;23.80;70.20;;;;;;2370364;53;20934;-69
2023/09/21 08:19:45;;;;;;;2.10;0.80;;;23.80;69.90;;;;;;2370412;53;20997;-69
2023/09/21 08:22:11;;;;;;;2.45;0.90;;;23.90;69.70;;;;;;2370747;53;20943;-70
2023/09/21 08:24:41;;;;;;;3.70;0.90;;;23.90;69.50;;;;;;2343500;53;20948;-70
2023/09/21 08:27:10;;;;;;;2.22;0.90;;;24.00;69.50;;;;;;2344276;53;20977;-69
2023/09/21 08:29:36;;;;;;;2.30;0.93;;;24.10;69.30;;;;;;2343320;53;21402;-70
2023/09/21 08:32:03;;;;;;;2.37;0.90;;;24.10;69.20;;;;;;2343265;53;20992;-69
2023/09/21 08:34:30;;;;;;;2.37;0.90;;;24.10;69.00;;;;;;2342102;53;20924;-70
2023/09/21 08:36:57;;;;;;;1.95;0.85;;;24.20;68.90;;;;;;2343163;53;20938;-71
2023/09/21 08:39:23;;;;;;;2.45;1.00;;;24.20;68.90;;;;;;2342846;53;20932;-68
2023/09/21 08:41:50;;;;;;;2.17;0.82;;;24.30;68.70;;;;;;2343271;53;20954;-69
2023/09/21 08:44:19;;;;;;;2.12;0.98;;;24.30;68.50;;;;;;2343052;53;20910;-67
2023/09/21 08:46:48;;;;;;;1.65;0.80;;;24.40;68.30;;;;;;2589938;52;20935;-70
2023/09/21 08:49:15;;;;;;;1.80;0.80;;;24.40;68.60;;;;;;2347541;53;20954;-70
2023/09/21 08:51:42;;;;;;;1.73;0.73;;;24.50;68.70;;;;;;2567863;53;20980;-71
2023/09/21 08:54:08;;;;;;;2.37;1.00;;;24.50;68.60;;;;;;2609000;52;20960;-70
2023/09/21 08:56:36;;;;;;;2.55;1.00;;;24.60;68.70;;;;;;2342817;53;20909;-72
2023/09/21 08:59:05;;;;;;;2.28;0.85;;;24.60;68.80;;;;;;2343646;53;20929;-70
2023/09/21 09:01:32;;;;;;;2.28;0.98;;;24.70;69.00;;;;;;2356876;53;20950;-71
2023/09/21 09:03:59;;;;;;;2.03;0.80;;;24.80;69.00;;;;;;2348492;53;21068;-71
2023/09/21 09:06:29;;;;;;;4.32;1.23;;;24.80;69.00;;;;;;2343026;53;20988;-70
2023/09/21 09:08:56;;;;;;;2.12;0.90;;;24.90;69.10;;;;;;2589839;52;21008;-72
2023/09/21 09:11:45;;;;;;;2.17;0.90;;;25.00;69.10;;;;;;2342831;53;20931;-70
2023/09/21 09:14:14;;;;;;;1.67;0.73;;;25.00;68.20;;;;;;2335592;54;21819;-69
2023/09/21 09:16:41;;;;;;;1.80;0.70;;;25.10;68.90;;;;;;2364521;53;20977;-70
2023/09/21 09:19:11;;;;;;;2.40;0.80;;;25.20;69.20;;;;;;2371355;53;20942;-70
2023/09/21 09:21:37;;;;;;;1.45;0.60;;;25.20;69.20;;;;;;2622989;52;20938;-69
2023/09/21 09:24:04;;;;;;;1.65;0.80;;;25.40;69.10;;;;;;2371259;53;21301;-72
2023/09/21 09:26:33;;;;;;;2.00;0.70;;;25.40;69.40;;;;;;2370856;53;20922;-71
2023/09/21 09:29:03;;;;;;;1.55;0.77;;;25.50;68.80;;;;;;2371313;53;21061;-72
2023/09/21 09:31:29;;;;;;;1.77;0.70;;;25.60;68.30;;;;;;2623537;52;21831;-72
2023/09/21 09:33:57;;;;;;;2.58;1.02;;;25.70;68.80;;;;;;2370909;53;20961;-70
2023/09/21 09:36:27;;;;;;;1.70;0.80;;;25.70;68.80;;;;;;2623715;52;20930;-72
2023/09/21 09:38:53;;;;;;;1.52;0.70;;;25.80;68.70;;;;;;2371643;53;20926;-69
2023/09/21 09:41:20;;;;;;;2.75;1.00;;;25.80;68.60;;;;;;2623832;52;20898;-72
2023/09/21 09:43:50;;;;;;;2.20;0.98;;;25.90;68.50;;;;;;2371011;53;20991;-70
2023/09/21 09:46:17;;;;;;;2.10;1.00;;;26.00;68.20;;;;;;2371220;53;20953;-72
2023/09/21 09:48:43;;;;;;;1.95;0.75;;;26.10;68.40;;;;;;2363791;53;21564;-72
2023/09/21 09:51:11;;;;;;;2.12;1.05;;;26.10;68.20;;;;;;2370286;53;20942;-67
2023/09/21 09:53:40;;;;;;;2.75;1.20;;;26.20;68.10;;;;;;2370051;53;20994;-70
2023/09/21 09:56:10;;;;;;;3.08;1.42;;;26.30;68.10;;;;;;2621903;52;20981;-68
2023/09/21 09:58:42;;;;;;;2.33;1.00;;;26.40;68.20;;;;;;2370542;53;21078;-69
2023/09/21 10:01:12;;;;;;;;;;;26.40;67.80;;;;;;2627381;52;20914;-71
2023/09/21 10:03:43;;;;;;;1.87;0.80;;;26.50;66.80;;;;;;2370602;53;20151;-71
2023/09/21 10:06:14;;;;;;;2.33;1.08;;;26.50;67.70;;;;;;2622976;52;20918;-70
2023/09/21 10:08:41;;;;;;;2.15;0.80;;;26.60;67.50;;;;;;2623924;52;20990;-69
2023/09/21 10:11:10;;;;;;;1.95;0.80;;;26.70;68.00;;;;;;2622720;52;21049;-68
2023/09/21 10:13:55;;;;;;;2.42;0.75;;;26.70;67.80;;;;;;2623119;52;21387;-70
2023/09/21 10:16:24;;;;;;;2.08;0.90;;;26.70;66.50;;;;;;2373391;53;21455;-68
2023/09/21 10:18:57;;;;;;;3.28;1.00;;;26.80;67.80;;;;;;2365641;53;20925;-70
2023/09/21 10:21:34;;;;;;;3.00;0.90;;;26.90;67.30;;;;;;2371763;53;20910;-72
2023/09/21 10:24:29;;;;;;;1.48;0.60;;;27.00;67.20;;;;;;2623655;52;20930;-72
2023/09/21 10:27:01;;;;;;;1.60;0.70;;;27.10;66.60;;;;;;2623807;52;21359;-72
2023/09/21 10:29:32;;;;;;;2.80;0.85;;;27.10;66.70;;;;;;2370903;53;20929;-70
2023/09/21 10:32:03;;;;;;;1.97;0.67;;;27.20;66.80;;;;;;2371217;53;20959;-70
2023/09/21 10:34:29;;;;;;;1.40;0.77;;;27.30;66.40;;;;;;2371265;53;21077;-69
2023/09/21 10:37:10;;;;;;;2.95;1.00;;;27.30;66.20;;;;;;2624114;52;20950;-70
2023/09/21 10:39:37;;;;;;;2.30;1.00;;;27.40;65.30;;;;;;2623503;52;20973;-70
2023/09/21 10:42:48;;;;;;;2.92;1.02;;;27.40;66.20;;;;;;2371074;53;20930;-71
2023/09/21 10:45:15;;;;;;;2.80;1.10;;;27.50;64.20;;;;;;2366541;54;20947;-71
2023/09/21 10:47:51;;;;;;;1.65;0.70;;;27.50;65.90;;;;;;2370510;53;20994;-70
2023/09/21 10:50:19;;;;;;;1.50;0.60;;;27.60;65.50;;;;;;2370437;53;20918;-69
2023/09/21 10:52:46;;;;;;;1.62;0.65;;;27.70;65.10;;;;;;2370658;53;20914;-69
2023/09/21 10:55:14;;;;;;;1.92;0.73;;;27.80;64.80;;;;;;2371075;53;20986;-70
2023/09/21 10:57:42;;;;;;;2.75;0.90;;;27.80;64.30;;;;;;2622691;52;20993;-72
2023/09/21 11:00:17;;;;;;;3.28;0.70;;;27.90;64.10;;;;;;2616596;52;20913;-70
2023/09/21 11:02:44;;;;;;;2.12;0.70;;;27.90;64.30;;;;;;2368819;53;20922;-71
2023/09/21 11:05:11;;;;;;;1.30;0.60;;;28.00;64.10;;;;;;2623626;52;20914;-71
2023/09/21 11:07:41;;;;;;;1.08;0.50;;;28.10;64.30;;;;;;2370619;53;21033;-69
2023/09/21 11:10:11;;;;;;;1.23;0.57;;;28.10;63.90;;;;;;2616545;52;21237;-70
2023/09/21 11:12:44;;;;;;;1.37;0.50;;;28.10;63.80;;;;;;2619680;52;20946;-71
2023/09/21 11:15:16;;;;;;;1.58;0.62;;;28.20;62.40;;;;;;2371163;53;20997;-71
2023/09/21 11:17:46;;;;;;;1.73;0.60;;;28.20;63.10;;;;;;2371068;53;20930;-72
2023/09/21 11:20:17;;;;;;;2.05;0.77;;;28.20;62.40;;;;;;2370766;53;20911;-70
2023/09/21 11:22:48;;;;;;;1.40;0.60;;;28.30;62.00;;;;;;2370344;53;20915;-70
2023/09/21 11:25:16;;;;;;;2.05;0.90;;;28.30;62.20;;;;;;2622460;52;21742;-71
2023/09/21 11:27:43;;;;;;;1.85;0.70;;;28.30;62.20;;;;;;2370652;53;20934;-70
2023/09/21 11:30:13;;;;;;;1.65;0.60;;;28.30;62.00;;;;;;2356219;53;20979;-72
2023/09/21 11:32:41;;;;;;;1.85;0.70;;;28.30;62.20;;;;;;2596366;52;21021;-69
2023/09/21 11:35:09;;;;;;;1.30;0.45;;;28.30;62.20;;;;;;2622980;52;20934;-71
2023/09/21 11:37:41;;;;;;;1.25;0.52;;;28.30;62.10;;;;;;2368835;53;21006;-72
2023/09/21 11:40:12;;;;;;;1.62;0.60;;;28.30;61.80;;;;;;2370942;53;21086;-69
2023/09/21 11:42:49;;;;;;;2.05;0.60;;;28.30;61.50;;;;;;2370294;53;21006;-69
2023/09/21 11:45:24;;;;;;;1.15;0.40;;;28.30;60.90;;;;;;2623510;52;21005;-70
2023/09/21 11:47:52;;;;;;;1.12;0.50;;;28.30;60.80;;;;;;2370224;53;20918;-71
2023/09/21 11:50:25;;;;;;;0.88;0.40;;;28.30;61.70;;;;;;2370188;53;20915;-70
2023/09/21 11:52:57;;;;;;;1.77;0.50;;;28.30;62.40;;;;;;2623475;52;20938;-71
2023/09/21 11:55:27;;;;;;;2.28;0.60;;;28.30;61.60;;;;;;2370967;53;20915;-71
2023/09/21 11:58:10;;;;;;;2.22;0.73;;;28.30;61.50;;;;;;2370564;53;20965;-71
2023/09/21 12:00:49;;;;;;;2.33;0.90;;;28.30;59.70;;;;;;2369702;53;21016;-70
2023/09/21 12:03:21;;;;;;;1.67;0.50;;;28.30;61.80;;;;;;2360745;54;21012;-70
2023/09/21 12:05:48;;;;;;;2.05;0.45;;;28.30;61.80;;;;;;2338762;54;20989;-69
2023/09/21 12:08:15;;;;;;;1.35;0.68;;;28.30;62.20;;;;;;2371049;53;20910;-69
2023/09/21 12:10:42;;;;;;;2.00;0.60;;;28.30;61.90;;;;;;2370135;53;20961;-69
2023/09/21 12:13:11;;;;;;;1.83;0.70;;;28.40;62.00;;;;;;2622976;52;20970;-71
2023/09/21 12:15:37;;;;;;;1.17;0.43;;;28.40;62.00;;;;;;2623048;52;21553;-72
2023/09/21 12:18:07;;;;;;;1.40;0.55;;;28.40;61.90;;;;;;2623081;52;20962;-70
2023/09/21 12:20:34;;;;;;;1.00;0.50;;;28.40;61.40;;;;;;2369974;53;21350;-70
2023/09/21 12:23:05;;;;;;;1.23;0.50;;;28.40;61.70;;;;;;2371280;53;20990;-71
2023/09/21 12:25:32;;;;;;;2.00;0.80;;;28.50;61.80;;;;;;2623280;52;21483;-70
2023/09/21 12:28:00;;;;;;;1.62;0.62;;;28.50;61.50;;;;;;2371050;53;20948;-71
2023/09/21 12:30:26;;;;;;;1.62;0.52;;;28.50;61.30;;;;;;2622930;52;20910;-70
2023/09/21 12:32:53;;;;;;;1.50;0.55;;;28.50;61.30;;;;;;2370367;53;20970;-70
2023/09/21 12:35:25;;;;;;;1.92;0.60;;;28.50;61.20;;;;;;2370748;53;20930;-71
2023/09/21 12:37:51;;;;;;;1.30;0.43;;;28.60;61.30;;;;;;2351535;53;21006;-70
2023/09/21 12:40:17;;;;;;;1.60;0.50;;;28.50;61.00;;;;;;2588213;52;21830;-69
2023/09/21 12:42:45;;;;;;;1.37;0.50;;;28.60;61.30;;;;;;2341167;53;21299;-71
2023/09/21 12:45:17;;;;;;;1.12;0.47;;;28.60;61.30;;;;;;2342600;53;21004;-71
2023/09/21 12:47:44;;;;;;;2.67;0.60;;;28.70;61.30;;;;;;2342629;53;21023;-68
2023/09/21 12:50:13;;;;;;;1.23;0.57;;;28.70;60.80;;;;;;2351612;53;21801;-71
2023/09/21 12:52:41;;;;;;;2.12;0.80;;;28.70;60.30;;;;;;2370635;53;20970;-71
2023/09/21 12:55:08;;;;;;;1.37;0.50;;;28.70;60.60;;;;;;2623984;52;20926;-72
2023/09/21 12:57:44;;;;;;;1.90;0.70;;;28.80;60.40;;;;;;2370517;53;20977;-69